sensor_id;sensor_type;location;lat;lon;timestamp;temperature;humidity
40848;DHT22;26570;50.962;5.340;2023-09-12T00:03:46;20.70;99.90
40848;DHT22;26570;50.962;5.340;2023-09-12T00:07:23;20.70;99.90
40848;DHT22;26570;50.962;5.340;2023-09-12T00:10:39;20.60;99.90
40848;DHT22;26570;50.962;5.340;2023-09-12T00:13:59;20.20;99.90
40848;DHT22;26570;50.962;5.340;2023-09-12T00:20:55;20.40;99.90
40848;DHT22;26570;50.962;5.340;2023-09-12T00:24:42;20.40;99.90
40848;DHT22;26570;50.962;5.340;2023-09-12T00:27:53;20.20;99.90
40848;DHT22;26570;50.962;5.340;2023-09-12T00:35:26;20.30;99.90
40848;DHT22;26570;50.962;5.340;2023-09-12T00:38:31;20.20;99.90
40848;DHT22;26570;50.962;5.340;2023-09-12T00:41:58;20.20;99.90
40848;DHT22;26570;50.962;5.340;2023-09-12T00:45:35;20.10;99.90
40848;DHT22;26570;50.962;5.340;2023-09-12T00:48:49;20.20;99.90
40848;DHT22;26570;50.962;5.340;2023-09-12T00:52:20;20.20;99.90
40848;DHT22;26570;50.962;5.340;2023-09-12T00:55:19;20.20;99.90
40848;DHT22;26570;50.962;5.340;2023-09-12T00:58:58;20.30;99.90
40848;DHT22;26570;50.962;5.340;2023-09-12T01:02:24;20.60;99.90
40848;DHT22;26570;50.962;5.340;2023-09-12T01:05:31;20.80;99.90
40848;DHT22;26570;50.962;5.340;2023-09-12T01:08:58;20.80;99.90
40848;DHT22;26570;50.962;5.340;2023-09-12T01:12:03;21.00;99.90
40848;DHT22;26570;50.962;5.340;2023-09-12T01:15:33;20.70;99.90
40848;DHT22;26570;50.962;5.340;2023-09-12T01:19:07;20.70;99.90
40848;DHT22;26570;50.962;5.340;2023-09-12T01:27:17;20.60;99.90
40848;DHT22;26570;50.962;5.340;2023-09-12T01:38:33;21.00;99.90
40848;DHT22;26570;50.962;5.340;2023-09-12T01:53:22;21.00;99.90
40848;DHT22;26570;50.962;5.340;2023-09-12T01:56:53;20.90;99.90
40848;DHT22;26570;50.962;5.340;2023-09-12T02:00:00;20.70;99.90
40848;DHT22;26570;50.962;5.340;2023-09-12T02:10:54;20.70;99.90
40848;DHT22;26570;50.962;5.340;2023-09-12T02:14:02;20.60;99.90
40848;DHT22;26570;50.962;5.340;2023-09-12T02:17:57;20.60;99.90
40848;DHT22;26570;50.962;5.340;2023-09-12T02:25:47;20.40;99.90
40848;DHT22;26570;50.962;5.340;2023-09-12T02:29:28;20.40;99.90
40848;DHT22;26570;50.962;5.340;2023-09-12T02:33:07;20.50;99.90
40848;DHT22;26570;50.962;5.340;2023-09-12T02:52:49;20.40;99.90
40848;DHT22;26570;50.962;5.340;2023-09-12T02:59:38;20.20;99.90
40848;DHT22;26570;50.962;5.340;2023-09-12T03:07:10;20.00;99.90
40848;DHT22;26570;50.962;5.340;2023-09-12T03:18:56;20.30;99.90
40848;DHT22;26570;50.962;5.340;2023-09-12T03:30:06;20.20;99.90
40848;DHT22;26570;50.962;5.340;2023-09-12T03:37:17;20.20;99.90
40848;DHT22;26570;50.962;5.340;2023-09-12T03:52:14;20.30;99.90
40848;DHT22;26570;50.962;5.340;2023-09-12T03:55:57;20.20;99.90
40848;DHT22;26570;50.962;5.340;2023-09-12T03:59:52;20.30;99.90
40848;DHT22;26570;50.962;5.340;2023-09-12T04:11:19;20.40;99.90
40848;DHT22;26570;50.962;5.340;2023-09-12T04:14:56;20.40;99.90
40848;DHT22;26570;50.962;5.340;2023-09-12T04:18:41;20.40;99.90
40848;DHT22;26570;50.962;5.340;2023-09-12T04:30:10;20.70;99.90
40848;DHT22;26570;50.962;5.340;2023-09-12T04:52:50;20.00;99.90
40848;DHT22;26570;50.962;5.340;2023-09-12T05:04:06;20.10;99.90
40848;DHT22;26570;50.962;5.340;2023-09-12T05:11:13;20.30;99.90
40848;DHT22;26570;50.962;5.340;2023-09-12T05:15:19;20.30;99.90
40848;DHT22;26570;50.962;5.340;2023-09-12T05:18:59;20.20;99.90
40848;DHT22;26570;50.962;5.340;2023-09-12T05:26:34;20.20;99.90
40848;DHT22;26570;50.962;5.340;2023-09-12T05:30:29;20.50;99.90
40848;DHT22;26570;50.962;5.340;2023-09-12T05:38:16;20.20;99.90
40848;DHT22;26570;50.962;5.340;2023-09-12T05:45:46;20.20;99.90
40848;DHT22;26570;50.962;5.340;2023-09-12T05:49:26;20.30;99.90
40848;DHT22;26570;50.962;5.340;2023-09-12T05:52:55;20.10;99.90
40848;DHT22;26570;50.962;5.340;2023-09-12T05:56:30;20.20;99.90
40848;DHT22;26570;50.962;5.340;2023-09-12T05:59:59;20.40;99.90
40848;DHT22;26570;50.962;5.340;2023-09-12T06:11:12;20.40;99.90
40848;DHT22;26570;50.962;5.340;2023-09-12T06:14:56;20.30;99.90
40848;DHT22;26570;50.962;5.340;2023-09-12T06:30:16;20.50;99.90
40848;DHT22;26570;50.962;5.340;2023-09-12T06:41:42;21.20;99.90
40848;DHT22;26570;50.962;5.340;2023-09-12T06:45:11;22.30;99.90
40848;DHT22;26570;50.962;5.340;2023-09-12T06:48:45;23.50;99.90
40848;DHT22;26570;50.962;5.340;2023-09-12T06:52:43;25.40;99.90
40848;DHT22;26570;50.962;5.340;2023-09-12T06:59:55;26.40;99.90
40848;DHT22;26570;50.962;5.340;2023-09-12T07:13:25;28.80;99.90
40848;DHT22;26570;50.962;5.340;2023-09-12T07:16:11;28.90;99.90
40848;DHT22;26570;50.962;5.340;2023-09-12T07:18:56;29.70;99.90
40848;DHT22;26570;50.962;5.340;2023-09-12T07:21:41;30.60;99.90
40848;DHT22;26570;50.962;5.340;2023-09-12T07:24:27;31.20;99.90
40848;DHT22;26570;50.962;5.340;2023-09-12T07:27:13;31.40;99.90
40848;DHT22;26570;50.962;5.340;2023-09-12T07:29:58;31.80;99.90
40848;DHT22;26570;50.962;5.340;2023-09-12T07:32:43;32.20;99.90
40848;DHT22;26570;50.962;5.340;2023-09-12T07:35:28;32.60;99.90
40848;DHT22;26570;50.962;5.340;2023-09-12T07:38:18;33.10;99.90
40848;DHT22;26570;50.962;5.340;2023-09-12T07:41:04;33.70;99.70
40848;DHT22;26570;50.962;5.340;2023-09-12T07:43:49;34.00;98.40
40848;DHT22;26570;50.962;5.340;2023-09-12T07:46:35;33.90;98.70
40848;DHT22;26570;50.962;5.340;2023-09-12T07:49:20;34.20;98.10
40848;DHT22;26570;50.962;5.340;2023-09-12T07:52:24;34.40;97.20
40848;DHT22;26570;50.962;5.340;2023-09-12T07:55:19;34.60;97.10
40848;DHT22;26570;50.962;5.340;2023-09-12T07:58:05;34.50;95.90
40848;DHT22;26570;50.962;5.340;2023-09-12T08:00:50;34.50;96.20
40848;DHT22;26570;50.962;5.340;2023-09-12T08:03:37;34.20;96.50
40848;DHT22;26570;50.962;5.340;2023-09-12T08:06:24;33.40;97.20
40848;DHT22;26570;50.962;5.340;2023-09-12T08:09:10;32.90;98.10
40848;DHT22;26570;50.962;5.340;2023-09-12T08:11:56;32.70;99.10
40848;DHT22;26570;50.962;5.340;2023-09-12T08:14:42;32.30;99.90
40848;DHT22;26570;50.962;5.340;2023-09-12T08:17:28;31.40;99.90
40848;DHT22;26570;50.962;5.340;2023-09-12T08:20:14;30.90;99.90
40848;DHT22;26570;50.962;5.340;2023-09-12T08:22:59;31.00;99.90
40848;DHT22;26570;50.962;5.340;2023-09-12T08:25:45;30.30;99.90
40848;DHT22;26570;50.962;5.340;2023-09-12T08:28:31;30.00;99.90
40848;DHT22;26570;50.962;5.340;2023-09-12T08:31:16;29.70;99.90
40848;DHT22;26570;50.962;5.340;2023-09-12T08:34:02;29.40;99.90
40848;DHT22;26570;50.962;5.340;2023-09-12T08:36:48;28.80;99.90
40848;DHT22;26570;50.962;5.340;2023-09-12T08:39:44;29.20;99.90
40848;DHT22;26570;50.962;5.340;2023-09-12T08:42:31;29.40;99.90
40848;DHT22;26570;50.962;5.340;2023-09-12T08:45:18;30.50;99.90
40848;DHT22;26570;50.962;5.340;2023-09-12T08:48:05;31.70;99.90
40848;DHT22;26570;50.962;5.340;2023-09-12T08:50:53;31.30;99.90
40848;DHT22;26570;50.962;5.340;2023-09-12T08:53:39;31.40;99.90
40848;DHT22;26570;50.962;5.340;2023-09-12T08:56:24;32.20;99.90
40848;DHT22;26570;50.962;5.340;2023-09-12T08:59:13;32.70;99.70
40848;DHT22;26570;50.962;5.340;2023-09-12T09:02:00;33.30;99.20
40848;DHT22;26570;50.962;5.340;2023-09-12T09:04:46;33.50;97.90
40848;DHT22;26570;50.962;5.340;2023-09-12T09:07:37;33.30;98.60
40848;DHT22;26570;50.962;5.340;2023-09-12T09:10:23;33.50;96.80
40848;DHT22;26570;50.962;5.340;2023-09-12T09:13:12;33.20;96.60
40848;DHT22;26570;50.962;5.340;2023-09-12T09:16:13;32.50;97.40
40848;DHT22;26570;50.962;5.340;2023-09-12T09:18:59;31.40;99.80
40848;DHT22;26570;50.962;5.340;2023-09-12T09:21:45;31.30;99.80
40848;DHT22;26570;50.962;5.340;2023-09-12T09:24:31;31.10;99.90
40848;DHT22;26570;50.962;5.340;2023-09-12T09:27:33;31.30;99.90
40848;DHT22;26570;50.962;5.340;2023-09-12T09:30:41;30.90;99.90
40848;DHT22;26570;50.962;5.340;2023-09-12T09:33:27;30.50;99.90
40848;DHT22;26570;50.962;5.340;2023-09-12T09:36:12;30.40;99.90
40848;DHT22;26570;50.962;5.340;2023-09-12T09:38:58;30.30;99.90
40848;DHT22;26570;50.962;5.340;2023-09-12T09:41:51;30.30;99.90
40848;DHT22;26570;50.962;5.340;2023-09-12T09:44:36;30.10;99.90
40848;DHT22;26570;50.962;5.340;2023-09-12T09:47:22;29.80;99.90
40848;DHT22;26570;50.962;5.340;2023-09-12T09:50:08;29.70;99.90
40848;DHT22;26570;50.962;5.340;2023-09-12T09:52:55;29.70;99.90
40848;DHT22;26570;50.962;5.340;2023-09-12T09:55:42;29.70;99.90
40848;DHT22;26570;50.962;5.340;2023-09-12T09:58:27;29.50;99.90
40848;DHT22;26570;50.962;5.340;2023-09-12T10:01:18;29.90;99.90
40848;DHT22;26570;50.962;5.340;2023-09-12T10:04:07;30.30;99.90
40848;DHT22;26570;50.962;5.340;2023-09-12T10:06:56;30.50;99.90
40848;DHT22;26570;50.962;5.340;2023-09-12T10:09:43;30.40;99.90
40848;DHT22;26570;50.962;5.340;2023-09-12T10:12:36;30.20;99.90
40848;DHT22;26570;50.962;5.340;2023-09-12T10:15:24;30.00;99.90
40848;DHT22;26570;50.962;5.340;2023-09-12T10:18:17;29.90;99.90
40848;DHT22;26570;50.962;5.340;2023-09-12T10:21:10;29.70;99.90
40848;DHT22;26570;50.962;5.340;2023-09-12T10:23:58;29.80;99.90
40848;DHT22;26570;50.962;5.340;2023-09-12T10:26:44;29.70;99.90
40848;DHT22;26570;50.962;5.340;2023-09-12T10:29:31;29.60;99.90
40848;DHT22;26570;50.962;5.340;2023-09-12T10:32:18;29.60;99.90
40848;DHT22;26570;50.962;5.340;2023-09-12T10:35:08;29.40;99.90
40848;DHT22;26570;50.962;5.340;2023-09-12T10:37:54;29.50;99.90
40848;DHT22;26570;50.962;5.340;2023-09-12T10:40:44;29.60;99.90
40848;DHT22;26570;50.962;5.340;2023-09-12T10:43:34;29.70;99.90
40848;DHT22;26570;50.962;5.340;2023-09-12T10:46:21;29.60;99.90
40848;DHT22;26570;50.962;5.340;2023-09-12T10:49:09;29.80;99.90
40848;DHT22;26570;50.962;5.340;2023-09-12T10:51:58;29.80;99.90
40848;DHT22;26570;50.962;5.340;2023-09-12T10:54:45;29.70;99.90
40848;DHT22;26570;50.962;5.340;2023-09-12T10:57:30;29.80;99.90
40848;DHT22;26570;50.962;5.340;2023-09-12T11:00:16;29.50;99.90
40848;DHT22;26570;50.962;5.340;2023-09-12T11:06:21;29.50;99.90
40848;DHT22;26570;50.962;5.340;2023-09-12T11:12:02;29.80;99.90
40848;DHT22;26570;50.962;5.340;2023-09-12T11:15:04;29.70;99.90
40848;DHT22;26570;50.962;5.340;2023-09-12T11:18:14;29.90;99.90
40848;DHT22;26570;50.962;5.340;2023-09-12T11:21:01;29.90;99.90
40848;DHT22;26570;50.962;5.340;2023-09-12T11:23:54;30.10;99.90
40848;DHT22;26570;50.962;5.340;2023-09-12T11:27:12;30.30;99.90
40848;DHT22;26570;50.962;5.340;2023-09-12T11:30:07;30.20;99.90
40848;DHT22;26570;50.962;5.340;2023-09-12T11:36:46;30.40;99.90
40848;DHT22;26570;50.962;5.340;2023-09-12T11:39:37;30.20;99.90
40848;DHT22;26570;50.962;5.340;2023-09-12T11:42:25;30.20;99.90
40848;DHT22;26570;50.962;5.340;2023-09-12T12:45:58;31.70;97.90
40848;DHT22;26570;50.962;5.340;2023-09-12T13:05:48;32.10;95.60
40848;DHT22;26570;50.962;5.340;2023-09-12T13:08:34;31.90;95.00
40848;DHT22;26570;50.962;5.340;2023-09-12T13:11:19;31.60;96.40
40848;DHT22;26570;50.962;5.340;2023-09-12T13:14:05;31.60;95.00
40848;DHT22;26570;50.962;5.340;2023-09-12T13:16:55;31.30;95.90
40848;DHT22;26570;50.962;5.340;2023-09-12T13:19:40;31.10;96.40
40848;DHT22;26570;50.962;5.340;2023-09-12T13:22:25;30.90;97.20
40848;DHT22;26570;50.962;5.340;2023-09-12T13:25:11;31.00;98.10
40848;DHT22;26570;50.962;5.340;2023-09-12T13:27:57;31.30;97.00
40848;DHT22;26570;50.962;5.340;2023-09-12T13:30:43;31.50;95.80
40848;DHT22;26570;50.962;5.340;2023-09-12T13:33:29;31.50;96.10
40848;DHT22;26570;50.962;5.340;2023-09-12T13:36:15;31.20;95.80
40848;DHT22;26570;50.962;5.340;2023-09-12T13:39:01;31.30;96.10
40848;DHT22;26570;50.962;5.340;2023-09-12T13:41:47;31.50;96.20
40848;DHT22;26570;50.962;5.340;2023-09-12T13:44:33;31.60;94.70
40848;DHT22;26570;50.962;5.340;2023-09-12T13:47:22;31.30;95.70
40848;DHT22;26570;50.962;5.340;2023-09-12T13:50:08;31.40;95.60
40848;DHT22;26570;50.962;5.340;2023-09-12T13:52:58;31.30;95.10
40848;DHT22;26570;50.962;5.340;2023-09-12T13:55:52;31.50;95.90
40848;DHT22;26570;50.962;5.340;2023-09-12T13:58:37;31.60;96.70
40848;DHT22;26570;50.962;5.340;2023-09-12T14:01:24;31.60;94.60
40848;DHT22;26570;50.962;5.340;2023-09-12T14:04:08;31.80;94.00
40848;DHT22;26570;50.962;5.340;2023-09-12T14:06:54;31.80;93.70
40848;DHT22;26570;50.962;5.340;2023-09-12T14:09:39;31.80;95.50
40848;DHT22;26570;50.962;5.340;2023-09-12T14:12:25;31.50;95.10
40848;DHT22;26570;50.962;5.340;2023-09-12T14:15:12;31.40;95.20
40848;DHT22;26570;50.962;5.340;2023-09-12T14:17:59;31.30;94.20
40848;DHT22;26570;50.962;5.340;2023-09-12T14:20:44;31.20;94.50
40848;DHT22;26570;50.962;5.340;2023-09-12T14:23:31;30.90;95.10
40848;DHT22;26570;50.962;5.340;2023-09-12T14:26:17;30.60;96.30
40848;DHT22;26570;50.962;5.340;2023-09-12T14:29:02;30.80;96.00
40848;DHT22;26570;50.962;5.340;2023-09-12T14:31:48;30.60;96.00
40848;DHT22;26570;50.962;5.340;2023-09-12T14:34:42;30.50;96.80
40848;DHT22;26570;50.962;5.340;2023-09-12T14:37:30;30.30;97.40
40848;DHT22;26570;50.962;5.340;2023-09-12T14:40:18;30.00;98.40
40848;DHT22;26570;50.962;5.340;2023-09-12T14:43:06;30.10;98.80
40848;DHT22;26570;50.962;5.340;2023-09-12T14:45:56;29.70;99.90
40848;DHT22;26570;50.962;5.340;2023-09-12T14:48:53;30.20;99.40
40848;DHT22;26570;50.962;5.340;2023-09-12T14:51:57;30.00;99.40
40848;DHT22;26570;50.962;5.340;2023-09-12T14:54:56;29.80;99.90
40848;DHT22;26570;50.962;5.340;2023-09-12T14:57:43;29.70;99.90
40848;DHT22;26570;50.962;5.340;2023-09-12T15:00:38;29.50;99.90
40848;DHT22;26570;50.962;5.340;2023-09-12T15:03:23;29.70;99.90
40848;DHT22;26570;50.962;5.340;2023-09-12T15:06:12;29.60;99.90
40848;DHT22;26570;50.962;5.340;2023-09-12T15:09:00;29.50;99.90
40848;DHT22;26570;50.962;5.340;2023-09-12T15:11:49;29.50;99.90
40848;DHT22;26570;50.962;5.340;2023-09-12T15:14:37;29.60;99.90
40848;DHT22;26570;50.962;5.340;2023-09-12T15:17:25;29.30;99.90
40848;DHT22;26570;50.962;5.340;2023-09-12T15:20:29;29.30;99.90
40848;DHT22;26570;50.962;5.340;2023-09-12T15:23:26;29.20;99.90
40848;DHT22;26570;50.962;5.340;2023-09-12T15:26:31;29.20;99.90
40848;DHT22;26570;50.962;5.340;2023-09-12T15:29:19;29.00;99.90
40848;DHT22;26570;50.962;5.340;2023-09-12T15:32:08;28.70;99.90
40848;DHT22;26570;50.962;5.340;2023-09-12T15:35:18;28.60;99.90
40848;DHT22;26570;50.962;5.340;2023-09-12T15:38:05;28.60;99.90
40848;DHT22;26570;50.962;5.340;2023-09-12T15:40:53;28.40;99.90
40848;DHT22;26570;50.962;5.340;2023-09-12T15:43:42;28.60;99.90
40848;DHT22;26570;50.962;5.340;2023-09-12T15:46:27;28.70;99.90
40848;DHT22;26570;50.962;5.340;2023-09-12T15:49:35;28.40;99.90
40848;DHT22;26570;50.962;5.340;2023-09-12T15:52:20;28.10;99.90
40848;DHT22;26570;50.962;5.340;2023-09-12T15:55:26;28.00;99.90
40848;DHT22;26570;50.962;5.340;2023-09-12T15:58:15;28.00;99.90
40848;DHT22;26570;50.962;5.340;2023-09-12T16:01:00;28.00;99.90
40848;DHT22;26570;50.962;5.340;2023-09-12T16:03:48;28.10;99.90
40848;DHT22;26570;50.962;5.340;2023-09-12T16:06:33;27.70;99.90
40848;DHT22;26570;50.962;5.340;2023-09-12T16:09:18;27.40;99.90
40848;DHT22;26570;50.962;5.340;2023-09-12T16:12:04;27.30;99.90
40848;DHT22;26570;50.962;5.340;2023-09-12T16:14:53;27.30;99.90
40848;DHT22;26570;50.962;5.340;2023-09-12T16:17:39;26.90;99.90
40848;DHT22;26570;50.962;5.340;2023-09-12T16:20:27;26.60;99.90
40848;DHT22;26570;50.962;5.340;2023-09-12T16:23:12;26.50;99.90
40848;DHT22;26570;50.962;5.340;2023-09-12T16:25:58;26.40;99.90
40848;DHT22;26570;50.962;5.340;2023-09-12T16:28:44;26.50;99.90
40848;DHT22;26570;50.962;5.340;2023-09-12T16:31:29;26.40;99.90
40848;DHT22;26570;50.962;5.340;2023-09-12T16:34:14;26.20;99.90
40848;DHT22;26570;50.962;5.340;2023-09-12T16:37:00;26.10;99.90
40848;DHT22;26570;50.962;5.340;2023-09-12T16:39:46;26.00;99.90
40848;DHT22;26570;50.962;5.340;2023-09-12T16:42:32;25.90;99.90
40848;DHT22;26570;50.962;5.340;2023-09-12T16:45:18;25.80;99.90
40848;DHT22;26570;50.962;5.340;2023-09-12T16:48:03;25.60;99.90
40848;DHT22;26570;50.962;5.340;2023-09-12T16:50:50;25.70;99.90
40848;DHT22;26570;50.962;5.340;2023-09-12T16:53:36;25.80;99.90
40848;DHT22;26570;50.962;5.340;2023-09-12T16:56:21;25.40;99.90
40848;DHT22;26570;50.962;5.340;2023-09-12T16:59:07;25.00;99.90
40848;DHT22;26570;50.962;5.340;2023-09-12T17:01:53;24.70;99.90
40848;DHT22;26570;50.962;5.340;2023-09-12T17:04:39;24.60;99.90
40848;DHT22;26570;50.962;5.340;2023-09-12T17:07:28;24.40;99.90
40848;DHT22;26570;50.962;5.340;2023-09-12T17:10:14;24.40;99.90
40848;DHT22;26570;50.962;5.340;2023-09-12T17:12:59;24.00;99.90
40848;DHT22;26570;50.962;5.340;2023-09-12T17:15:45;23.80;99.90
40848;DHT22;26570;50.962;5.340;2023-09-12T17:18:31;23.80;99.90
40848;DHT22;26570;50.962;5.340;2023-09-12T17:21:18;24.00;99.90
40848;DHT22;26570;50.962;5.340;2023-09-12T17:24:03;23.70;99.90
40848;DHT22;26570;50.962;5.340;2023-09-12T17:26:49;23.60;99.90
40848;DHT22;26570;50.962;5.340;2023-09-12T17:29:34;23.80;99.90
40848;DHT22;26570;50.962;5.340;2023-09-12T17:32:20;23.90;99.90
40848;DHT22;26570;50.962;5.340;2023-09-12T17:35:05;23.50;99.90
40848;DHT22;26570;50.962;5.340;2023-09-12T17:37:51;23.30;99.90
40848;DHT22;26570;50.962;5.340;2023-09-12T17:40:39;23.20;99.90
40848;DHT22;26570;50.962;5.340;2023-09-12T17:43:25;23.20;99.90
40848;DHT22;26570;50.962;5.340;2023-09-12T17:46:11;23.30;99.90
40848;DHT22;26570;50.962;5.340;2023-09-12T17:48:56;23.20;99.90
40848;DHT22;26570;50.962;5.340;2023-09-12T17:51:42;23.20;99.90
40848;DHT22;26570;50.962;5.340;2023-09-12T17:54:27;22.60;99.90
40848;DHT22;26570;50.962;5.340;2023-09-12T17:57:13;22.70;99.90
40848;DHT22;26570;50.962;5.340;2023-09-12T17:59:58;22.40;99.90
40848;DHT22;26570;50.962;5.340;2023-09-12T18:02:44;22.30;99.90
40848;DHT22;26570;50.962;5.340;2023-09-12T18:05:33;22.20;99.90
40848;DHT22;26570;50.962;5.340;2023-09-12T18:08:18;22.00;99.90
40848;DHT22;26570;50.962;5.340;2023-09-12T18:11:03;21.90;99.90
40848;DHT22;26570;50.962;5.340;2023-09-12T18:13:49;22.00;99.90
40848;DHT22;26570;50.962;5.340;2023-09-12T18:16:34;21.80;99.90
40848;DHT22;26570;50.962;5.340;2023-09-12T18:19:21;21.90;99.90
40848;DHT22;26570;50.962;5.340;2023-09-12T18:22:07;22.10;99.90
40848;DHT22;26570;50.962;5.340;2023-09-12T18:25:06;21.70;99.90
40848;DHT22;26570;50.962;5.340;2023-09-12T18:27:52;21.70;99.90
40848;DHT22;26570;50.962;5.340;2023-09-12T18:30:38;21.60;99.90
40848;DHT22;26570;50.962;5.340;2023-09-12T18:33:25;21.50;99.90
40848;DHT22;26570;50.962;5.340;2023-09-12T18:36:12;21.50;99.90
40848;DHT22;26570;50.962;5.340;2023-09-12T18:38:58;21.50;99.90
40848;DHT22;26570;50.962;5.340;2023-09-12T18:41:43;21.80;99.90
40848;DHT22;26570;50.962;5.340;2023-09-12T18:44:30;21.70;99.90
40848;DHT22;26570;50.962;5.340;2023-09-12T18:47:17;21.60;99.90
40848;DHT22;26570;50.962;5.340;2023-09-12T18:50:04;21.70;99.90
40848;DHT22;26570;50.962;5.340;2023-09-12T18:52:49;21.70;99.90
40848;DHT22;26570;50.962;5.340;2023-09-12T18:55:36;21.80;99.90
40848;DHT22;26570;50.962;5.340;2023-09-12T18:58:23;21.70;99.90
40848;DHT22;26570;50.962;5.340;2023-09-12T19:01:09;21.70;99.90
40848;DHT22;26570;50.962;5.340;2023-09-12T19:03:56;21.60;99.90
40848;DHT22;26570;50.962;5.340;2023-09-12T19:06:41;21.60;99.90
40848;DHT22;26570;50.962;5.340;2023-09-12T19:09:28;21.70;99.90
40848;DHT22;26570;50.962;5.340;2023-09-12T19:12:14;21.80;99.90
40848;DHT22;26570;50.962;5.340;2023-09-12T19:15:00;21.60;99.90
40848;DHT22;26570;50.962;5.340;2023-09-12T19:17:46;21.60;99.90
40848;DHT22;26570;50.962;5.340;2023-09-12T19:20:33;21.40;99.90
40848;DHT22;26570;50.962;5.340;2023-09-12T19:23:19;21.50;99.90
40848;DHT22;26570;50.962;5.340;2023-09-12T19:26:05;21.40;99.90
40848;DHT22;26570;50.962;5.340;2023-09-12T19:28:51;21.40;99.90
40848;DHT22;26570;50.962;5.340;2023-09-12T19:31:37;21.30;99.90
40848;DHT22;26570;50.962;5.340;2023-09-12T19:34:24;21.40;99.90
40848;DHT22;26570;50.962;5.340;2023-09-12T19:37:10;21.40;99.90
40848;DHT22;26570;50.962;5.340;2023-09-12T19:39:56;21.40;99.90
40848;DHT22;26570;50.962;5.340;2023-09-12T19:42:42;21.60;99.90
40848;DHT22;26570;50.962;5.340;2023-09-12T19:45:27;21.70;99.90
40848;DHT22;26570;50.962;5.340;2023-09-12T19:48:13;21.70;99.90
40848;DHT22;26570;50.962;5.340;2023-09-12T19:50:59;21.70;99.90
40848;DHT22;26570;50.962;5.340;2023-09-12T19:53:47;21.40;99.90
40848;DHT22;26570;50.962;5.340;2023-09-12T19:56:32;21.30;99.90
40848;DHT22;26570;50.962;5.340;2023-09-12T19:59:18;21.40;99.90
40848;DHT22;26570;50.962;5.340;2023-09-12T20:02:03;21.40;99.90
40848;DHT22;26570;50.962;5.340;2023-09-12T20:04:48;21.40;99.90
40848;DHT22;26570;50.962;5.340;2023-09-12T20:07:33;21.40;99.90
40848;DHT22;26570;50.962;5.340;2023-09-12T20:10:19;21.30;99.90
40848;DHT22;26570;50.962;5.340;2023-09-12T20:13:05;21.10;99.90
40848;DHT22;26570;50.962;5.340;2023-09-12T20:15:51;21.10;99.90
40848;DHT22;26570;50.962;5.340;2023-09-12T20:18:36;21.00;99.90
40848;DHT22;26570;50.962;5.340;2023-09-12T20:21:22;21.10;99.90
40848;DHT22;26570;50.962;5.340;2023-09-12T20:24:09;21.00;99.90
40848;DHT22;26570;50.962;5.340;2023-09-12T20:26:54;20.80;99.90
40848;DHT22;26570;50.962;5.340;2023-09-12T20:29:39;20.60;99.90
40848;DHT22;26570;50.962;5.340;2023-09-12T20:32:25;20.60;99.90
40848;DHT22;26570;50.962;5.340;2023-09-12T20:35:11;20.70;99.90
40848;DHT22;26570;50.962;5.340;2023-09-12T20:37:57;21.00;99.90
40848;DHT22;26570;50.962;5.340;2023-09-12T20:40:42;21.10;99.90
40848;DHT22;26570;50.962;5.340;2023-09-12T20:43:31;20.90;99.90
40848;DHT22;26570;50.962;5.340;2023-09-12T20:46:17;20.60;99.90
40848;DHT22;26570;50.962;5.340;2023-09-12T20:49:03;20.40;99.90
40848;DHT22;26570;50.962;5.340;2023-09-12T20:51:49;20.40;99.90
40848;DHT22;26570;50.962;5.340;2023-09-12T20:54:35;20.50;99.90
40848;DHT22;26570;50.962;5.340;2023-09-12T20:57:21;20.40;99.90
40848;DHT22;26570;50.962;5.340;2023-09-12T21:00:08;20.60;99.90
40848;DHT22;26570;50.962;5.340;2023-09-12T21:02:54;20.50;99.90
40848;DHT22;26570;50.962;5.340;2023-09-12T21:05:40;20.50;99.90
40848;DHT22;26570;50.962;5.340;2023-09-12T21:08:28;20.40;99.90
40848;DHT22;26570;50.962;5.340;2023-09-12T21:11:17;20.40;99.90
40848;DHT22;26570;50.962;5.340;2023-09-12T21:14:03;20.50;99.90
40848;DHT22;26570;50.962;5.340;2023-09-12T21:16:48;20.60;99.90
40848;DHT22;26570;50.962;5.340;2023-09-12T21:19:36;20.70;99.90
40848;DHT22;26570;50.962;5.340;2023-09-12T21:22:21;20.90;99.90
40848;DHT22;26570;50.962;5.340;2023-09-12T21:25:07;20.90;99.90
40848;DHT22;26570;50.962;5.340;2023-09-12T21:27:53;20.80;99.90
40848;DHT22;26570;50.962;5.340;2023-09-12T21:30:38;20.70;99.90
40848;DHT22;26570;50.962;5.340;2023-09-12T21:33:24;20.80;99.90
40848;DHT22;26570;50.962;5.340;2023-09-12T21:36:10;20.90;99.90
40848;DHT22;26570;50.962;5.340;2023-09-12T21:38:56;20.90;99.90
40848;DHT22;26570;50.962;5.340;2023-09-12T21:41:41;20.90;99.90
40848;DHT22;26570;50.962;5.340;2023-09-12T21:44:27;20.90;99.90
40848;DHT22;26570;50.962;5.340;2023-09-12T21:47:12;20.90;99.90
40848;DHT22;26570;50.962;5.340;2023-09-12T21:49:58;20.90;99.90
40848;DHT22;26570;50.962;5.340;2023-09-12T21:52:44;20.90;99.90
40848;DHT22;26570;50.962;5.340;2023-09-12T21:55:29;20.90;99.90
40848;DHT22;26570;50.962;5.340;2023-09-12T21:58:15;20.90;99.90
40848;DHT22;26570;50.962;5.340;2023-09-12T22:01:01;20.90;99.90
40848;DHT22;26570;50.962;5.340;2023-09-12T22:03:47;20.90;99.90
40848;DHT22;26570;50.962;5.340;2023-09-12T22:06:34;20.90;99.90
40848;DHT22;26570;50.962;5.340;2023-09-12T22:09:19;21.00;99.90
40848;DHT22;26570;50.962;5.340;2023-09-12T22:12:04;21.00;99.90
40848;DHT22;26570;50.962;5.340;2023-09-12T22:14:52;20.90;99.90
40848;DHT22;26570;50.962;5.340;2023-09-12T22:17:39;21.00;99.90
40848;DHT22;26570;50.962;5.340;2023-09-12T22:20:25;21.10;99.90
40848;DHT22;26570;50.962;5.340;2023-09-12T22:23:11;20.90;99.90
40848;DHT22;26570;50.962;5.340;2023-09-12T22:25:56;21.00;99.90
40848;DHT22;26570;50.962;5.340;2023-09-12T22:28:42;20.90;99.90
40848;DHT22;26570;50.962;5.340;2023-09-12T22:31:28;20.90;99.90
40848;DHT22;26570;50.962;5.340;2023-09-12T22:34:13;21.00;99.90
40848;DHT22;26570;50.962;5.340;2023-09-12T22:36:59;20.90;99.90
40848;DHT22;26570;50.962;5.340;2023-09-12T22:39:45;20.80;99.90
40848;DHT22;26570;50.962;5.340;2023-09-12T22:42:31;20.80;99.90
40848;DHT22;26570;50.962;5.340;2023-09-12T22:45:17;20.60;99.90
40848;DHT22;26570;50.962;5.340;2023-09-12T22:48:02;20.50;99.90
40848;DHT22;26570;50.962;5.340;2023-09-12T22:50:47;20.50;99.90
40848;DHT22;26570;50.962;5.340;2023-09-12T22:53:33;20.60;99.90
40848;DHT22;26570;50.962;5.340;2023-09-12T22:56:19;20.60;99.90
40848;DHT22;26570;50.962;5.340;2023-09-12T22:59:04;20.60;99.90
